Time;durP1;ratioP1;P1;durP2;ratioP2;P2;SDS_P1;SDS_P2;PMS_P1;PMS_P2;Temp;Humidity;BMP_temperature;BMP_pressure;BME280_temperature;BME280_humidity;BME280_pressure;Samples;Min_cycle;Max_cycle;Signal;HPM_P1;HPM_P2
2020/12/16 00:01:35;;;;;;;;;;;5.30;99.90;;;;;;5026400;28;19943;-69
2020/12/16 00:04:00;;;;;;;;;;;5.30;99.90;;;;;;5028799;28;20011;-69
2020/12/16 00:06:26;;;;;;;;;;;5.30;99.90;;;;;;5028011;28;19909;-68
2020/12/16 00:08:51;;;;;;;;;;;5.30;99.90;;;;;;5028220;28;20024;-69
2020/12/16 00:11:17;;;;;;;;;;;5.30;99.90;;;;;;5027235;28;19993;-70
2020/12/16 00:13:42;;;;;;;;;;;5.20;99.90;;;;;;5028489;28;20020;-69
2020/12/16 00:16:08;;;;;;;;;;;5.20;99.90;;;;;;5026533;28;19917;-68
2020/12/16 00:18:34;;;;;;;;;;;5.10;99.90;;;;;;5028246;28;19921;-69
2020/12/16 00:20:59;;;;;;;;;;;5.10;99.90;;;;;;5028117;28;19936;-67
2020/12/16 00:23:25;;;;;;;;;;;5.00;99.90;;;;;;5027899;28;19916;-69
2020/12/16 00:25:50;;;;;;;;;;;5.10;99.90;;;;;;5028671;28;19913;-67
2020/12/16 00:28:16;;;;;;;;;;;5.10;99.90;;;;;;5028399;28;20389;-68
2020/12/16 00:30:47;;;;;;;;;;;5.10;99.90;;;;;;5028463;28;19909;-68
2020/12/16 00:33:19;;;;;;;;;;;5.10;99.90;;;;;;5027579;28;19921;-67
2020/12/16 00:35:45;;;;;;;;;;;5.10;99.90;;;;;;5028295;28;20238;-68
2020/12/16 00:38:11;;;;;;;;;;;5.10;99.90;;;;;;5028126;28;19982;-67
2020/12/16 00:40:37;;;;;;;;;;;5.10;99.90;;;;;;5028024;28;19916;-68
2020/12/16 00:43:02;;;;;;;;;;;5.20;99.90;;;;;;5027858;28;20314;-68
2020/12/16 00:45:28;;;;;;;;;;;5.10;99.90;;;;;;5027584;28;19913;-68
2020/12/16 00:47:53;;;;;;;;;;;5.10;99.90;;;;;;5024565;28;19940;-69
2020/12/16 00:50:19;;;;;;;;;;;5.20;99.90;;;;;;5028058;28;19913;-68
2020/12/16 00:52:44;;;;;;;;;;;5.20;99.90;;;;;;5027675;28;19927;-67
2020/12/16 00:55:10;;;;;;;;;;;5.20;99.90;;;;;;5027297;28;20437;-67
2020/12/16 00:57:35;;;;;;;;;;;5.20;99.90;;;;;;5017239;28;20348;-68
2020/12/16 01:00:01;;;;;;;;;;;5.30;99.90;;;;;;5007813;28;20008;-68
2020/12/16 01:02:27;;;;;;;;;;;5.30;99.90;;;;;;5006604;28;20412;-70
2020/12/16 01:04:52;;;;;;;;;;;5.30;99.90;;;;;;5008338;28;19917;-68
2020/12/16 01:07:18;;;;;;;;;;;5.40;99.90;;;;;;5007091;28;19917;-69
2020/12/16 01:09:43;;;;;;;;;;;5.40;99.90;;;;;;5007896;28;19910;-69
2020/12/16 01:12:09;;;;;;;;;;;5.40;99.90;;;;;;5007704;28;20012;-68
2020/12/16 01:14:34;;;;;;;;;;;5.40;99.90;;;;;;5008070;28;20012;-68
2020/12/16 01:17:00;;;;;;;;;;;5.30;99.90;;;;;;5025448;28;19948;-69
2020/12/16 01:19:25;;;;;;;;;;;5.30;99.90;;;;;;5027700;28;19909;-68
2020/12/16 01:21:51;;;;;;;;;;;5.20;99.90;;;;;;5027053;28;19909;-67
2020/12/16 01:24:16;;;;;;;;;;;5.20;99.90;;;;;;5028355;28;19909;-68
2020/12/16 01:26:46;;;;;;;;;;;5.10;99.90;;;;;;5029570;28;20423;-69
2020/12/16 01:29:14;;;;;;;;;;;5.20;99.90;;;;;;5031274;28;19909;-69
2020/12/16 01:31:41;;;;;;;;;;;5.20;99.90;;;;;;5029225;28;19913;-68
2020/12/16 01:34:07;;;;;;;;;;;5.20;99.90;;;;;;5031770;28;20003;-69
2020/12/16 01:36:32;;;;;;;;;;;5.20;99.90;;;;;;5030747;28;20116;-68
2020/12/16 01:38:58;;;;;;;;;;;5.20;99.90;;;;;;5031088;28;19909;-68
2020/12/16 01:41:24;;;;;;;;;;;5.20;99.90;;;;;;5029779;28;19920;-67
2020/12/16 01:43:50;;;;;;;;;;;5.20;99.90;;;;;;5031848;28;19948;-68
2020/12/16 01:46:15;;;;;;;;;;;5.30;99.90;;;;;;5029220;28;20015;-66
2020/12/16 01:48:41;;;;;;;;;;;5.20;99.90;;;;;;5031757;28;19931;-67
2020/12/16 01:51:09;;;;;;;;;;;5.20;99.90;;;;;;5031373;28;20237;-69
2020/12/16 01:53:35;;;;;;;;;;;5.20;99.90;;;;;;5031477;28;20038;-67
2020/12/16 01:56:01;;;;;;;;;;;5.20;99.90;;;;;;5031462;28;20091;-69
2020/12/16 01:58:28;;;;;;;;;;;5.20;99.90;;;;;;5030333;28;19920;-68
2020/12/16 02:00:57;;;;;;;;;;;5.20;99.90;;;;;;5029771;28;20000;-67
2020/12/16 02:03:23;;;;;;;;;;;5.10;99.90;;;;;;5023908;28;19924;-69
2020/12/16 02:05:51;;;;;;;;;;;5.10;99.90;;;;;;5029821;28;19916;-68
2020/12/16 02:08:19;;;;;;;;;;;5.20;99.90;;;;;;5029791;28;19909;-68
2020/12/16 02:10:45;;;;;;;;;;;5.20;99.90;;;;;;5029826;28;19936;-67
2020/12/16 02:13:10;;;;;;;;;;;5.20;99.90;;;;;;5029487;28;19921;-68
2020/12/16 02:15:36;;;;;;;;;;;5.20;99.90;;;;;;5028699;28;19913;-68
2020/12/16 02:18:01;;;;;;;;;;;5.20;99.90;;;;;;5028657;28;20408;-68
2020/12/16 02:20:27;;;;;;;;;;;5.30;99.90;;;;;;5030105;28;20011;-68
2020/12/16 02:22:54;;;;;;;;;;;5.30;99.90;;;;;;5028746;28;19917;-68
2020/12/16 02:25:20;;;;;;;;;;;5.30;99.90;;;;;;5029726;28;19913;-68
2020/12/16 02:27:45;;;;;;;;;;;5.40;99.90;;;;;;5028539;28;19943;-68
2020/12/16 02:30:12;;;;;;;;;;;5.40;99.90;;;;;;5029962;28;19913;-69
2020/12/16 02:32:38;;;;;;;;;;;5.40;99.90;;;;;;5028487;28;19920;-68
2020/12/16 02:35:04;;;;;;;;;;;5.40;99.90;;;;;;5030294;28;20254;-68
2020/12/16 02:37:29;;;;;;;;;;;5.40;99.90;;;;;;5028365;28;20397;-68
2020/12/16 02:39:55;;;;;;;;;;;5.40;99.90;;;;;;5029840;28;19913;-67
2020/12/16 02:42:22;;;;;;;;;;;5.40;99.90;;;;;;5029463;28;19909;-68
2020/12/16 02:44:47;;;;;;;;;;;5.40;99.90;;;;;;5030668;28;19990;-68
2020/12/16 02:47:13;;;;;;;;;;;5.40;99.90;;;;;;5027296;28;19918;-66
2020/12/16 02:49:38;;;;;;;;;;;5.40;99.90;;;;;;5029379;28;19913;-67
2020/12/16 02:52:04;;;;;;;;;;;5.40;99.90;;;;;;5029577;28;20035;-68
2020/12/16 02:54:29;;;;;;;;;;;5.40;99.90;;;;;;5030210;28;19999;-68
2020/12/16 02:56:55;;;;;;;;;;;5.40;99.90;;;;;;5029109;28;19913;-67
2020/12/16 02:59:22;;;;;;;;;;;5.40;99.90;;;;;;5029982;28;20436;-68
2020/12/16 03:01:48;;;;;;;;;;;5.40;99.90;;;;;;5028582;28;19944;-69
2020/12/16 03:04:14;;;;;;;;;;;5.30;99.90;;;;;;5030882;28;19967;-68
2020/12/16 03:06:40;;;;;;;;;;;5.30;99.90;;;;;;5029744;28;19952;-68
2020/12/16 03:09:05;;;;;;;;;;;5.30;99.90;;;;;;5029171;28;20337;-68
2020/12/16 03:11:31;;;;;;;;;;;5.30;99.90;;;;;;5027627;28;19917;-68
2020/12/16 03:13:56;;;;;;;;;;;5.30;99.90;;;;;;5029289;28;19917;-69
2020/12/16 03:16:22;;;;;;;;;;;5.30;99.90;;;;;;5027864;28;19979;-68
2020/12/16 03:18:47;;;;;;;;;;;5.30;99.90;;;;;;5029769;28;19999;-68
2020/12/16 03:21:20;;;;;;;;;;;5.30;99.90;;;;;;5026939;28;20007;-66
2020/12/16 03:23:45;;;;;;;;;;;5.20;99.90;;;;;;5028897;28;19921;-68
2020/12/16 03:26:11;;;;;;;;;;;5.20;99.90;;;;;;5028773;28;19913;-67
2020/12/16 03:28:36;;;;;;;;;;;5.20;99.90;;;;;;5028537;28;19909;-68
2020/12/16 03:31:02;;;;;;;;;;;5.10;99.90;;;;;;5026818;28;19924;-66
2020/12/16 03:33:27;;;;;;;;;;;5.10;99.90;;;;;;5027566;28;19920;-69
2020/12/16 03:35:53;;;;;;;;;;;5.00;99.90;;;;;;5028566;28;19913;-66
2020/12/16 03:38:18;;;;;;;;;;;5.00;99.90;;;;;;5028761;28;19909;-69
2020/12/16 03:40:44;;;;;;;;;;;5.00;99.90;;;;;;5028257;28;19920;-69
2020/12/16 03:43:09;;;;;;;;;;;5.00;99.90;;;;;;5028349;28;19928;-68
2020/12/16 03:45:35;;;;;;;;;;;5.00;99.90;;;;;;5027949;28;20396;-68
2020/12/16 03:48:00;;;;;;;;;;;5.00;99.90;;;;;;5026356;28;20006;-67
2020/12/16 03:50:26;;;;;;;;;;;5.00;99.90;;;;;;5028071;28;19909;-68
2020/12/16 03:52:51;;;;;;;;;;;5.10;99.90;;;;;;5028416;28;19923;-67
2020/12/16 03:55:17;;;;;;;;;;;5.10;99.90;;;;;;5028153;28;19936;-68
2020/12/16 03:57:42;;;;;;;;;;;5.20;99.90;;;;;;5027025;28;19920;-68
2020/12/16 04:00:10;;;;;;;;;;;5.20;99.90;;;;;;5027934;28;19909;-68
2020/12/16 04:02:38;;;;;;;;;;;5.20;99.90;;;;;;5026359;28;19917;-68
2020/12/16 04:05:07;;;;;;;;;;;5.30;99.90;;;;;;5028989;28;20489;-67
2020/12/16 04:07:33;;;;;;;;;;;5.30;99.90;;;;;;5027471;28;20400;-68
2020/12/16 04:09:59;;;;;;;;;;;5.30;99.90;;;;;;5027436;28;19919;-68
2020/12/16 04:12:24;;;;;;;;;;;5.30;99.90;;;;;;5027274;28;20289;-67
2020/12/16 04:14:49;;;;;;;;;;;5.30;99.90;;;;;;5029084;28;19921;-66
2020/12/16 04:17:15;;;;;;;;;;;5.20;99.90;;;;;;5025484;28;20099;-66
2020/12/16 04:19:41;;;;;;;;;;;5.20;99.90;;;;;;5027673;28;19929;-67
2020/12/16 04:22:06;;;;;;;;;;;5.30;99.90;;;;;;5028017;28;19913;-67
2020/12/16 04:24:32;;;;;;;;;;;5.30;99.90;;;;;;5028138;28;19913;-67
2020/12/16 04:26:57;;;;;;;;;;;5.30;99.90;;;;;;5027382;28;19959;-68
2020/12/16 04:29:23;;;;;;;;;;;5.30;99.90;;;;;;5026942;28;19956;-66
2020/12/16 04:31:49;;;;;;;;;;;5.30;99.90;;;;;;5026522;28;19979;-68
2020/12/16 04:34:15;;;;;;;;;;;5.40;99.90;;;;;;5028890;28;19917;-66
2020/12/16 04:36:41;;;;;;;;;;;5.40;99.90;;;;;;5032595;28;20316;-68
2020/12/16 04:39:06;;;;;;;;;;;5.40;99.90;;;;;;5028418;28;19960;-68
2020/12/16 04:41:32;;;;;;;;;;;5.40;99.90;;;;;;5026452;28;20409;-66
2020/12/16 04:43:57;;;;;;;;;;;5.50;99.90;;;;;;5027433;28;19909;-69
2020/12/16 04:46:27;;;;;;;;;;;5.50;99.90;;;;;;5026374;28;19944;-67
2020/12/16 04:48:53;;;;;;;;;;;5.50;99.90;;;;;;5027074;28;19964;-68
2020/12/16 04:51:18;;;;;;;;;;;5.50;99.90;;;;;;5026799;28;19952;-66
2020/12/16 04:53:44;;;;;;;;;;;5.50;99.90;;;;;;5029798;28;20459;-68
2020/12/16 04:56:11;;;;;;;;;;;5.50;99.90;;;;;;5029879;28;19925;-66
2020/12/16 04:58:37;;;;;;;;;;;5.60;99.90;;;;;;5030129;28;19993;-67
2020/12/16 05:01:03;;;;;;;;;;;5.60;99.90;;;;;;5031924;28;19913;-67
2020/12/16 05:03:28;;;;;;;;;;;5.60;99.90;;;;;;5034417;28;19909;-66
2020/12/16 05:05:54;;;;;;;;;;;5.70;99.90;;;;;;5037685;28;19973;-68
2020/12/16 05:08:19;;;;;;;;;;;5.70;99.90;;;;;;5034916;28;19924;-67
2020/12/16 05:10:47;;;;;;;;;;;5.80;99.90;;;;;;5036110;28;20377;-68
2020/12/16 05:13:14;;;;;;;;;;;5.70;99.90;;;;;;5034064;28;19928;-68
2020/12/16 05:15:41;;;;;;;;;;;5.70;99.90;;;;;;5035648;28;19920;-67
2020/12/16 05:18:13;;;;;;;;;;;5.70;99.90;;;;;;5033908;28;19953;-67
2020/12/16 05:20:39;;;;;;;;;;;5.70;99.90;;;;;;5035093;28;19909;-68
2020/12/16 05:23:06;;;;;;;;;;;5.70;99.90;;;;;;5035786;28;19913;-68
2020/12/16 05:25:31;;;;;;;;;;;5.70;99.90;;;;;;5036137;28;19963;-68
2020/12/16 05:27:57;;;;;;;;;;;5.70;99.90;;;;;;5039540;28;19909;-68
2020/12/16 05:30:23;;;;;;;;;;;5.70;99.90;;;;;;5042834;28;20469;-67
2020/12/16 05:32:49;;;;;;;;;;;5.70;99.90;;;;;;5044937;28;19919;-68
2020/12/16 05:35:28;;;;;;;;;;;5.70;99.90;;;;;;5044262;28;20016;-68
2020/12/16 05:38:19;;;;;;;;;;;5.70;99.90;;;;;;5043320;28;19920;-68
2020/12/16 05:40:45;;;;;;;;;;;5.70;99.90;;;;;;5039397;28;20366;-68
2020/12/16 05:43:21;;;;;;;;;;;5.70;99.90;;;;;;5046397;28;19905;-68
2020/12/16 05:45:46;;;;;;;;;;;5.60;99.90;;;;;;5045001;28;20003;-68
2020/12/16 05:48:12;;;;;;;;;;;5.60;99.90;;;;;;5046011;28;19913;-69
2020/12/16 05:50:40;;;;;;;;;;;5.60;99.90;;;;;;5047274;28;19909;-68
2020/12/16 05:53:10;;;;;;;;;;;5.50;99.90;;;;;;5042136;28;20012;-68
2020/12/16 05:55:36;;;;;;;;;;;5.50;99.90;;;;;;5034656;28;20016;-68
2020/12/16 05:58:10;;;;;;;;;;;5.60;99.90;;;;;;5030578;28;19913;-68
2020/12/16 06:00:42;;;;;;;;;;;5.60;99.90;;;;;;5035749;28;19944;-68
2020/12/16 06:03:14;;;;;;;;;;;5.60;99.90;;;;;;5040651;28;19909;-68
2020/12/16 06:05:39;;;;;;;;;;;5.60;99.90;;;;;;5042402;28;19909;-67
2020/12/16 06:08:05;;;;;;;;;;;5.70;99.90;;;;;;5037743;28;19985;-68
2020/12/16 06:10:33;;;;;;;;;;;5.60;99.90;;;;;;5032922;28;19998;-68
2020/12/16 06:13:03;;;;;;;;;;;5.70;99.90;;;;;;5034299;28;19924;-68
2020/12/16 06:15:32;;;;;;;;;;;5.70;99.90;;;;;;5035046;28;20055;-68
2020/12/16 06:18:01;;;;;;;;;;;5.70;99.90;;;;;;5034467;28;20443;-69
2020/12/16 06:20:35;;;;;;;;;;;5.70;99.90;;;;;;5036096;28;19909;-69
2020/12/16 06:23:00;;;;;;;;;;;5.70;99.90;;;;;;5035125;28;20007;-68
2020/12/16 06:25:26;;;;;;;;;;;5.70;99.90;;;;;;5036254;28;19913;-68
2020/12/16 06:27:52;;;;;;;;;;;5.70;99.90;;;;;;5032179;28;19967;-69
2020/12/16 06:30:28;;;;;;;;;;;5.70;99.90;;;;;;5031813;28;19909;-66
2020/12/16 06:33:18;;;;;;;;;;;5.80;99.90;;;;;;5032719;28;20290;-69
2020/12/16 06:35:44;;;;;;;;;;;5.70;99.90;;;;;;5027162;28;20538;-67
2020/12/16 06:38:16;;;;;;;;;;;5.70;99.90;;;;;;5032753;28;19986;-68
2020/12/16 06:40:46;;;;;;;;;;;5.70;99.90;;;;;;5032425;28;19917;-69
2020/12/16 06:43:30;;;;;;;;;;;5.70;99.90;;;;;;5031587;28;19976;-68
2020/12/16 06:45:55;;;;;;;;;;;5.80;99.90;;;;;;5030051;28;19920;-68
2020/12/16 06:48:37;;;;;;;;;;;5.80;99.90;;;;;;5030430;28;19909;-68
2020/12/16 06:51:19;;;;;;;;;;;5.80;99.90;;;;;;5030123;28;19971;-68
2020/12/16 06:53:45;;;;;;;;;;;5.80;99.90;;;;;;5031731;28;19935;-68
2020/12/16 06:56:10;;;;;;;;;;;5.80;99.90;;;;;;5030063;28;20012;-68
2020/12/16 06:58:39;;;;;;;;;;;5.80;99.90;;;;;;5053329;22;20102;-72
2020/12/16 07:01:14;;;;;;;;;;;5.80;99.90;;;;;;5067990;28;19999;-70
2020/12/16 07:03:40;;;;;;;;;;;5.80;99.90;;;;;;5069828;28;19969;-70
2020/12/16 07:06:10;;;;;;;;;;;5.90;99.90;;;;;;5070032;28;19909;-72
2020/12/16 07:08:36;;;;;;;;;;;5.90;99.90;;;;;;5069930;28;19909;-71
2020/12/16 07:11:01;;;;;;;;;;;5.80;99.90;;;;;;5068571;28;19909;-70
2020/12/16 07:13:29;;;;;;;;;;;5.80;99.90;;;;;;5069016;28;19923;-71
2020/12/16 07:15:57;;;;;;;;;;;5.80;99.90;;;;;;5067807;28;19909;-71
2020/12/16 07:18:24;;;;;;;;;;;5.90;99.90;;;;;;5068201;28;19927;-71
2020/12/16 07:20:50;;;;;;;;;;;5.90;99.90;;;;;;5069233;28;19908;-71
2020/12/16 07:23:17;;;;;;;;;;;6.00;99.90;;;;;;5068961;28;20010;-71
2020/12/16 07:25:44;;;;;;;;;;;6.00;99.90;;;;;;5068120;28;19908;-69
2020/12/16 07:28:11;;;;;;;;;;;6.10;99.90;;;;;;5067860;28;20295;-71
2020/12/16 07:30:47;;;;;;;;;;;6.20;99.90;;;;;;5067617;28;19912;-70
2020/12/16 07:33:15;;;;;;;;;;;6.30;99.90;;;;;;5067501;28;20031;-70
2020/12/16 07:35:50;;;;;;;;;;;6.40;99.90;;;;;;5068459;28;20012;-69
2020/12/16 07:38:15;;;;;;;;;;;6.40;99.90;;;;;;5067840;28;19998;-69
2020/12/16 07:40:41;;;;;;;;;;;6.50;99.90;;;;;;5068164;28;19958;-69
2020/12/16 07:43:08;;;;;;;;;;;6.60;99.90;;;;;;5068220;28;19918;-70
2020/12/16 07:45:33;;;;;;;;;;;6.70;99.90;;;;;;5067427;28;19916;-70
2020/12/16 07:47:59;;;;;;;;;;;6.70;99.90;;;;;;5066834;28;20309;-69
2020/12/16 07:50:24;;;;;;;;;;;6.80;99.90;;;;;;5067725;28;19958;-69
2020/12/16 07:52:51;;;;;;;;;;;6.80;99.90;;;;;;5067986;28;19927;-69
2020/12/16 07:55:21;;;;;;;;;;;6.90;99.90;;;;;;5068219;28;19913;-69
2020/12/16 07:57:47;;;;;;;;;;;7.00;99.90;;;;;;5065581;28;19912;-69
2020/12/16 08:00:13;;;;;;;;;;;7.00;99.90;;;;;;5067727;28;19920;-70
2020/12/16 08:02:44;;;;;;;;;;;7.10;99.90;;;;;;5066616;28;19908;-70
2020/12/16 08:05:13;;;;;;;;;;;7.10;99.90;;;;;;5068211;28;20054;-70
2020/12/16 08:07:39;;;;;;;;;;;7.10;99.90;;;;;;5067837;28;20197;-69
2020/12/16 08:10:06;;;;;;;;;;;7.20;99.90;;;;;;5067739;28;20030;-71
2020/12/16 08:12:33;;;;;;;;;;;7.10;99.90;;;;;;5066863;28;19916;-70
2020/12/16 08:15:16;;;;;;;;;;;7.20;99.90;;;;;;5068144;28;19919;-70
2020/12/16 08:17:42;;;;;;;;;;;7.30;99.90;;;;;;5065179;28;19908;-71
2020/12/16 08:20:09;;;;;;;;;;;7.30;99.90;;;;;;5067499;28;19908;-70
2020/12/16 08:22:35;;;;;;;;;;;7.30;99.90;;;;;;5067987;28;19915;-70
2020/12/16 08:25:08;;;;;;;;;;;7.40;99.90;;;;;;5068089;28;19959;-69
2020/12/16 08:27:34;;;;;;;;;;;7.40;99.90;;;;;;5066836;28;19912;-69
2020/12/16 08:30:00;;;;;;;;;;;7.40;99.90;;;;;;5067538;28;20393;-69
2020/12/16 08:32:26;;;;;;;;;;;7.40;99.90;;;;;;5065933;28;20007;-69
2020/12/16 08:34:53;;;;;;;;;;;7.50;99.90;;;;;;5069900;28;19912;-69
2020/12/16 08:37:19;;;;;;;;;;;7.60;99.90;;;;;;5071067;28;20003;-70
2020/12/16 08:39:45;;;;;;;;;;;7.60;99.90;;;;;;5071485;28;19912;-68
2020/12/16 08:42:12;;;;;;;;;;;7.50;99.90;;;;;;5071565;28;19913;-68
2020/12/16 08:44:38;;;;;;;;;;;7.60;99.90;;;;;;5071807;28;19931;-69
2020/12/16 08:47:03;;;;;;;;;;;7.80;99.90;;;;;;5070061;28;20076;-70
2020/12/16 08:49:29;;;;;;;;;;;7.90;99.90;;;;;;5071121;28;19913;-70
2020/12/16 08:51:56;;;;;;;;;;;8.10;99.90;;;;;;5071274;28;20298;-70
2020/12/16 08:54:25;;;;;;;;;;;8.20;99.90;;;;;;5072079;28;19960;-70
2020/12/16 08:56:55;;;;;;;;;;;8.30;99.90;;;;;;5070621;28;19924;-69
2020/12/16 08:59:21;;;;;;;;;;;8.40;99.90;;;;;;5071104;28;19952;-70
2020/12/16 09:01:48;;;;;;;;;;;8.50;99.90;;;;;;5069568;28;19978;-70
2020/12/16 09:04:33;;;;;;;;;;;8.50;99.90;;;;;;5071841;28;19919;-71
2020/12/16 09:06:59;;;;;;;;;;;8.40;99.90;;;;;;5071593;28;19954;-70
2020/12/16 09:09:24;;;;;;;;;;;8.50;99.90;;;;;;5070847;28;20317;-68
2020/12/16 09:11:50;;;;;;;;;;;8.60;99.90;;;;;;5069909;28;20027;-69
2020/12/16 09:14:16;;;;;;;;;;;8.60;99.90;;;;;;5071451;28;19948;-69
2020/12/16 09:16:42;;;;;;;;;;;8.70;99.90;;;;;;5068023;28;19909;-70
2020/12/16 09:19:07;;;;;;;;;;;8.70;99.90;;;;;;5070394;28;19908;-69
2020/12/16 09:21:34;;;;;;;;;;;8.70;99.90;;;;;;5070377;28;20664;-70
2020/12/16 09:24:01;;;;;;;;;;;8.70;99.90;;;;;;5071249;28;19919;-71
2020/12/16 09:26:42;;;;;;;;;;;8.80;99.90;;;;;;5070517;28;19943;-69
2020/12/16 09:29:18;;;;;;;;;;;8.90;99.90;;;;;;5071017;28;19909;-70
2020/12/16 09:31:44;;;;;;;;;;;8.90;99.90;;;;;;5068661;28;19916;-69
2020/12/16 09:34:10;;;;;;;;;;;8.90;99.90;;;;;;5071075;28;20007;-70
2020/12/16 09:36:36;;;;;;;;;;;8.90;99.90;;;;;;5070021;28;20607;-70
2020/12/16 09:39:03;;;;;;;;;;;9.20;99.90;;;;;;5068383;28;20062;-70
2020/12/16 09:41:40;;;;;;;;;;;9.40;99.90;;;;;;5068598;28;19909;-69
2020/12/16 09:44:05;;;;;;;;;;;9.40;99.90;;;;;;5070907;28;19913;-69
2020/12/16 09:46:31;;;;;;;;;;;9.80;99.90;;;;;;5068242;28;19912;-70
2020/12/16 09:49:00;;;;;;;;;;;10.40;99.90;;;;;;5070467;28;19913;-69
2020/12/16 09:51:25;;;;;;;;;;;10.80;99.90;;;;;;5068184;28;20677;-70
2020/12/16 09:53:52;;;;;;;;;;;12.10;99.90;;;;;;5071186;28;19913;-70
2020/12/16 09:56:24;;;;;;;;;;;14.80;99.90;;;;;;5070130;28;19912;-70
2020/12/16 09:58:50;;;;;;;;;;;16.80;99.90;;;;;;5069659;28;19921;-70
2020/12/16 10:01:16;;;;;;;;;;;17.00;99.90;;;;;;5067708;28;19962;-70
2020/12/16 10:03:41;;;;;;;;;;;16.10;99.90;;;;;;5070375;28;19913;-69
2020/12/16 10:06:10;;;;;;;;;;;16.50;99.90;;;;;;5069499;28;19909;-70
2020/12/16 10:08:36;;;;;;;;;;;17.70;99.90;;;;;;5070107;28;20101;-70
2020/12/16 10:11:01;;;;;;;;;;;18.10;99.90;;;;;;5069763;28;19908;-68
2020/12/16 10:13:27;;;;;;;;;;;18.40;99.90;;;;;;5069277;28;19913;-69
2020/12/16 10:15:52;;;;;;;;;;;17.70;99.90;;;;;;5069293;28;19908;-69
2020/12/16 10:18:18;;;;;;;;;;;16.90;99.90;;;;;;5068532;28;19981;-70
2020/12/16 10:20:43;;;;;;;;;;;16.10;99.90;;;;;;5069516;28;19920;-69
2020/12/16 10:23:09;;;;;;;;;;;15.40;99.90;;;;;;5070151;28;20077;-70
2020/12/16 10:25:35;;;;;;;;;;;15.30;99.90;;;;;;5069056;28;20002;-70
2020/12/16 10:28:00;;;;;;;;;;;16.00;99.90;;;;;;5069225;28;20009;-69
2020/12/16 10:30:26;;;;;;;;;;;16.80;99.90;;;;;;5069716;28;20033;-69
2020/12/16 10:32:54;;;;;;;;;;;17.60;99.90;;;;;;5068334;28;19916;-69
2020/12/16 10:35:21;;;;;;;;;;;18.00;99.90;;;;;;5069905;28;19930;-69
2020/12/16 10:37:47;;;;;;;;;;;18.30;99.90;;;;;;5069271;28;20377;-69
2020/12/16 10:40:12;;;;;;;;;;;18.80;99.90;;;;;;5069257;28;19912;-70
2020/12/16 10:42:38;;;;;;;;;;;20.10;99.90;;;;;;5069141;28;19931;-70
2020/12/16 10:45:04;;;;;;;;;;;19.50;99.90;;;;;;5069800;28;19923;-70
2020/12/16 10:47:30;;;;;;;;;;;19.80;99.90;;;;;;5067349;28;19999;-69
2020/12/16 10:49:55;;;;;;;;;;;20.20;99.90;;;;;;5069172;28;19995;-70
2020/12/16 10:52:21;;;;;;;;;;;20.50;99.90;;;;;;5069231;28;19974;-70
2020/12/16 10:54:46;;;;;;;;;;;20.70;96.80;;;;;;5069868;28;19920;-69
2020/12/16 10:57:12;;;;;;;;;;;20.00;98.80;;;;;;5068114;28;19916;-69
2020/12/16 10:59:37;;;;;;;;;;;19.70;96.80;;;;;;5068201;28;20586;-70
2020/12/16 11:02:03;;;;;;;;;;;19.50;97.30;;;;;;5067655;28;20295;-69
2020/12/16 11:04:30;;;;;;;;;;;19.50;97.20;;;;;;5069246;28;19908;-69
2020/12/16 11:06:55;;;;;;;;;;;19.30;97.40;;;;;;5069264;28;20317;-70
2020/12/16 11:09:21;;;;;;;;;;;19.20;97.30;;;;;;5068184;28;19967;-70
2020/12/16 11:11:47;;;;;;;;;;;19.50;96.90;;;;;;5067706;28;20469;-69
2020/12/16 11:14:13;;;;;;;;;;;19.70;96.30;;;;;;5069391;28;19912;-70
2020/12/16 11:16:40;;;;;;;;;;;19.60;95.70;;;;;;5066719;28;19977;-70
2020/12/16 11:19:06;;;;;;;;;;;19.00;96.60;;;;;;5068515;28;19948;-69
2020/12/16 11:21:48;;;;;;;;;;;18.90;97.30;;;;;;5067804;28;19958;-69
2020/12/16 11:24:14;;;;;;;;;;;19.10;97.00;;;;;;5069152;28;19912;-70
2020/12/16 11:26:41;;;;;;;;;;;19.00;96.40;;;;;;5068994;28;19934;-69
2020/12/16 11:29:07;;;;;;;;;;;18.40;97.50;;;;;;5067896;28;19974;-70
2020/12/16 11:31:39;;;;;;;;;;;18.10;98.40;;;;;;5066246;28;19979;-69
2020/12/16 11:34:05;;;;;;;;;;;17.90;98.30;;;;;;5069222;28;19915;-70
2020/12/16 11:36:31;;;;;;;;;;;17.30;99.50;;;;;;5068373;28;19985;-70
2020/12/16 11:38:56;;;;;;;;;;;16.60;99.90;;;;;;5073864;28;20295;-70
2020/12/16 11:41:22;;;;;;;;;;;16.80;99.90;;;;;;5068480;28;19931;-69
2020/12/16 11:43:47;;;;;;;;;;;17.00;99.90;;;;;;5068553;28;19909;-70
2020/12/16 11:46:13;;;;;;;;;;;16.00;99.90;;;;;;5067187;28;19912;-70
2020/12/16 11:48:38;;;;;;;;;;;15.60;99.90;;;;;;5068191;28;20230;-70
2020/12/16 11:51:04;;;;;;;;;;;15.90;99.90;;;;;;5067438;28;19935;-71
2020/12/16 11:53:29;;;;;;;;;;;16.40;99.90;;;;;;5068751;28;19977;-71
2020/12/16 11:55:55;;;;;;;;;;;16.50;99.90;;;;;;5068442;28;20003;-71
2020/12/16 11:58:20;;;;;;;;;;;16.70;99.90;;;;;;5067223;28;19982;-71
2020/12/16 12:00:46;;;;;;;;;;;17.00;99.90;;;;;;5067619;28;20366;-71
2020/12/16 12:03:11;;;;;;;;;;;17.20;99.90;;;;;;5067175;28;19932;-70
2020/12/16 12:05:37;;;;;;;;;;;17.40;99.90;;;;;;5068154;28;20014;-71
2020/12/16 12:08:02;;;;;;;;;;;17.30;99.90;;;;;;5067309;28;20003;-71
2020/12/16 12:10:28;;;;;;;;;;;17.40;99.90;;;;;;5066843;28;19909;-71
2020/12/16 12:12:53;;;;;;;;;;;17.50;99.90;;;;;;5067346;28;19920;-70
2020/12/16 12:15:19;;;;;;;;;;;17.60;99.90;;;;;;5067062;28;19931;-70
2020/12/16 12:17:45;;;;;;;;;;;17.60;99.90;;;;;;5065185;28;20265;-69
2020/12/16 12:20:10;;;;;;;;;;;17.50;99.90;;;;;;5067710;28;19947;-71
2020/12/16 12:22:36;;;;;;;;;;;17.60;99.90;;;;;;5067904;28;20544;-71
2020/12/16 12:25:02;;;;;;;;;;;17.10;99.90;;;;;;5067939;28;20327;-69
2020/12/16 12:27:27;;;;;;;;;;;16.90;99.90;;;;;;5066521;28;20001;-71
2020/12/16 12:29:53;;;;;;;;;;;16.80;99.90;;;;;;5067124;28;19908;-71
2020/12/16 12:32:18;;;;;;;;;;;15.90;99.90;;;;;;5065947;28;19912;-71
2020/12/16 12:34:44;;;;;;;;;;;14.90;99.90;;;;;;5068646;28;19920;-70
2020/12/16 12:37:09;;;;;;;;;;;14.60;99.90;;;;;;5067580;28;19991;-70
2020/12/16 12:39:35;;;;;;;;;;;14.00;99.90;;;;;;5066971;28;19916;-71
2020/12/16 12:42:00;;;;;;;;;;;13.10;99.90;;;;;;5067193;28;19916;-71
2020/12/16 12:44:26;;;;;;;;;;;14.80;99.90;;;;;;5067627;28;19920;-71
2020/12/16 12:46:51;;;;;;;;;;;15.10;99.90;;;;;;5064289;28;19962;-69
2020/12/16 12:49:17;;;;;;;;;;;15.40;99.90;;;;;;5066812;28;19954;-71
2020/12/16 12:51:50;;;;;;;;;;;15.20;99.90;;;;;;5066653;28;19924;-71
2020/12/16 12:54:15;;;;;;;;;;;15.10;99.90;;;;;;5067953;28;19908;-70
2020/12/16 12:56:41;;;;;;;;;;;15.20;99.90;;;;;;5067762;28;19909;-72
2020/12/16 12:59:07;;;;;;;;;;;15.10;99.90;;;;;;5066487;28;20573;-71
2020/12/16 13:01:32;;;;;;;;;;;14.90;99.90;;;;;;5065173;28;19962;-71
2020/12/16 13:03:58;;;;;;;;;;;14.80;99.90;;;;;;5067979;28;19996;-70
2020/12/16 13:06:23;;;;;;;;;;;14.50;99.90;;;;;;5067830;28;20597;-71
2020/12/16 13:08:49;;;;;;;;;;;14.40;99.90;;;;;;5066837;28;19952;-71
2020/12/16 13:11:14;;;;;;;;;;;14.40;99.90;;;;;;5065966;28;19912;-70
2020/12/16 13:13:40;;;;;;;;;;;14.40;99.90;;;;;;5066653;28;19913;-70
2020/12/16 13:16:08;;;;;;;;;;;14.00;99.90;;;;;;5066311;28;19913;-68
2020/12/16 13:18:34;;;;;;;;;;;13.80;99.90;;;;;;5066146;28;19915;-71
2020/12/16 13:21:00;;;;;;;;;;;14.70;99.90;;;;;;5066366;28;19912;-69
2020/12/16 13:23:27;;;;;;;;;;;13.90;99.90;;;;;;5070531;28;20130;-71
2020/12/16 13:25:52;;;;;;;;;;;14.00;99.90;;;;;;5070987;28;19908;-71
2020/12/16 13:28:18;;;;;;;;;;;14.10;99.90;;;;;;5069737;28;20416;-70
2020/12/16 13:30:43;;;;;;;;;;;14.20;99.90;;;;;;5069871;28;20300;-70
2020/12/16 13:33:09;;;;;;;;;;;14.30;99.90;;;;;;5069836;28;19916;-73
2020/12/16 13:35:34;;;;;;;;;;;14.30;99.90;;;;;;5070819;28;20363;-71
2020/12/16 13:38:00;;;;;;;;;;;14.40;99.90;;;;;;5070189;28;19931;-70
2020/12/16 13:40:25;;;;;;;;;;;14.30;99.90;;;;;;5069752;28;19913;-69
2020/12/16 13:42:51;;;;;;;;;;;14.30;99.90;;;;;;5070359;28;19913;-71
2020/12/16 13:45:17;;;;;;;;;;;14.20;99.90;;;;;;5070815;28;20365;-70
2020/12/16 13:47:43;;;;;;;;;;;14.20;99.90;;;;;;5068664;28;19915;-70
2020/12/16 13:50:08;;;;;;;;;;;14.10;99.90;;;;;;5069951;28;19913;-71
2020/12/16 13:52:34;;;;;;;;;;;13.70;99.90;;;;;;5070433;28;19963;-71
2020/12/16 13:55:00;;;;;;;;;;;13.40;99.90;;;;;;5070979;28;20017;-70
2020/12/16 13:57:25;;;;;;;;;;;13.40;99.90;;;;;;5068314;28;19916;-69
2020/12/16 13:59:51;;;;;;;;;;;13.40;99.90;;;;;;5068614;28;20331;-70
2020/12/16 14:02:16;;;;;;;;;;;13.10;99.90;;;;;;5067588;28;19967;-69
2020/12/16 14:04:41;;;;;;;;;;;13.30;99.90;;;;;;5069413;28;19916;-70
2020/12/16 14:07:08;;;;;;;;;;;13.20;99.90;;;;;;5068575;28;19915;-71
2020/12/16 14:09:33;;;;;;;;;;;13.20;99.90;;;;;;5067965;28;20294;-71
2020/12/16 14:11:59;;;;;;;;;;;13.20;99.90;;;;;;5068423;28;19959;-72
2020/12/16 14:14:27;;;;;;;;;;;13.10;99.90;;;;;;5069656;28;20007;-67
2020/12/16 14:16:53;;;;;;;;;;;13.00;99.90;;;;;;5067031;28;19919;-70
2020/12/16 14:19:19;;;;;;;;;;;12.90;99.90;;;;;;5068222;28;19908;-70
2020/12/16 14:21:44;;;;;;;;;;;12.80;99.90;;;;;;5067907;28;20373;-70
2020/12/16 14:24:10;;;;;;;;;;;12.80;99.90;;;;;;5068903;28;19913;-72